sensor_id;sensor_type;location;lat;lon;timestamp;pressure;altitude;pressure_sealevel;temperature;humidity
20930;BME280;21895;47.072;15.132;2023-05-23T00:01:08;96467.00;;;15.70;76.68
20930;BME280;21895;47.072;15.132;2023-05-23T00:03:36;96472.00;;;15.82;76.39
20930;BME280;21895;47.072;15.132;2023-05-23T00:06:05;96472.00;;;15.90;76.22
20930;BME280;21895;47.072;15.132;2023-05-23T00:08:32;96468.00;;;16.33;73.99
20930;BME280;21895;47.072;15.132;2023-05-23T00:10:58;96468.00;;;16.04;74.60
20930;BME280;21895;47.072;15.132;2023-05-23T00:13:25;96478.00;;;15.90;75.25
20930;BME280;21895;47.072;15.132;2023-05-23T00:15:52;96471.00;;;15.96;75.18
20930;BME280;21895;47.072;15.132;2023-05-23T00:18:18;96474.00;;;15.93;75.26
20930;BME280;21895;47.072;15.132;2023-05-23T00:20:45;96472.00;;;15.81;75.72
20930;BME280;21895;47.072;15.132;2023-05-23T00:23:12;96478.00;;;15.97;75.05
20930;BME280;21895;47.072;15.132;2023-05-23T00:25:47;96473.00;;;15.92;75.48
20930;BME280;21895;47.072;15.132;2023-05-23T00:28:18;96463.00;;;15.94;75.36
20930;BME280;21895;47.072;15.132;2023-05-23T00:30:44;96464.00;;;16.04;75.03
20930;BME280;21895;47.072;15.132;2023-05-23T00:33:11;96466.00;;;16.05;75.00
20930;BME280;21895;47.072;15.132;2023-05-23T00:35:41;96465.00;;;16.03;75.16
20930;BME280;21895;47.072;15.132;2023-05-23T00:38:08;96464.00;;;15.97;75.23
20930;BME280;21895;47.072;15.132;2023-05-23T00:40:36;96459.00;;;15.92;75.42
20930;BME280;21895;47.072;15.132;2023-05-23T00:43:03;96454.00;;;15.94;75.84
20930;BME280;21895;47.072;15.132;2023-05-23T00:45:29;96456.00;;;16.00;75.00
20930;BME280;21895;47.072;15.132;2023-05-23T00:47:56;96462.00;;;15.96;75.37
20930;BME280;21895;47.072;15.132;2023-05-23T00:50:24;96467.00;;;15.97;75.66
20930;BME280;21895;47.072;15.132;2023-05-23T00:52:56;96463.00;;;15.96;75.58
20930;BME280;21895;47.072;15.132;2023-05-23T00:55:24;96468.00;;;15.91;75.55
20930;BME280;21895;47.072;15.132;2023-05-23T00:57:53;96462.00;;;15.97;75.26
20930;BME280;21895;47.072;15.132;2023-05-23T01:00:25;96462.00;;;16.06;74.71
20930;BME280;21895;47.072;15.132;2023-05-23T01:02:52;96466.00;;;15.96;74.86
20930;BME280;21895;47.072;15.132;2023-05-23T01:05:20;96452.00;;;15.96;74.99
20930;BME280;21895;47.072;15.132;2023-05-23T01:07:50;96459.00;;;15.99;74.78
20930;BME280;21895;47.072;15.132;2023-05-23T01:10:22;96457.00;;;15.94;75.59
20930;BME280;21895;47.072;15.132;2023-05-23T01:14:41;96451.00;;;15.82;74.64
20930;BME280;21895;47.072;15.132;2023-05-23T01:17:17;96452.00;;;15.57;75.20
20930;BME280;21895;47.072;15.132;2023-05-23T01:19:59;96443.00;;;15.55;76.03
20930;BME280;21895;47.072;15.132;2023-05-23T01:27:17;96439.00;;;15.81;75.42
20930;BME280;21895;47.072;15.132;2023-05-23T01:29:56;96442.00;;;15.74;75.85
20930;BME280;21895;47.072;15.132;2023-05-23T01:32:25;96436.00;;;15.79;75.83
20930;BME280;21895;47.072;15.132;2023-05-23T01:34:53;96436.00;;;15.76;75.98
20930;BME280;21895;47.072;15.132;2023-05-23T01:37:21;96427.00;;;15.77;75.98
20930;BME280;21895;47.072;15.132;2023-05-23T01:39:48;96432.00;;;15.65;76.49
20930;BME280;21895;47.072;15.132;2023-05-23T01:42:15;96440.00;;;15.66;76.49
20930;BME280;21895;47.072;15.132;2023-05-23T01:44:43;96443.00;;;15.50;77.06
20930;BME280;21895;47.072;15.132;2023-05-23T01:47:11;96429.00;;;15.61;77.07
20930;BME280;21895;47.072;15.132;2023-05-23T01:49:40;96433.00;;;15.55;77.20
20930;BME280;21895;47.072;15.132;2023-05-23T01:52:07;96427.00;;;15.55;77.19
20930;BME280;21895;47.072;15.132;2023-05-23T01:54:39;96423.00;;;15.49;77.24
20930;BME280;21895;47.072;15.132;2023-05-23T01:57:08;96423.00;;;15.52;76.96
20930;BME280;21895;47.072;15.132;2023-05-23T01:59:36;96418.00;;;15.47;77.16
20930;BME280;21895;47.072;15.132;2023-05-23T02:02:03;96415.00;;;15.51;76.68
20930;BME280;21895;47.072;15.132;2023-05-23T02:04:31;96420.00;;;15.40;77.35
20930;BME280;21895;47.072;15.132;2023-05-23T02:06:58;96412.00;;;15.33;78.05
20930;BME280;21895;47.072;15.132;2023-05-23T02:09:24;96416.00;;;15.43;77.52
20930;BME280;21895;47.072;15.132;2023-05-23T02:11:51;96411.00;;;15.31;78.18
20930;BME280;21895;47.072;15.132;2023-05-23T02:14:17;96408.00;;;15.32;78.37
20930;BME280;21895;47.072;15.132;2023-05-23T02:16:44;96409.00;;;15.33;78.32
20930;BME280;21895;47.072;15.132;2023-05-23T02:19:11;96408.00;;;15.32;78.11
20930;BME280;21895;47.072;15.132;2023-05-23T02:21:37;96405.00;;;15.32;78.04
20930;BME280;21895;47.072;15.132;2023-05-23T02:24:04;96416.00;;;15.39;77.60
20930;BME280;21895;47.072;15.132;2023-05-23T02:26:31;96407.00;;;15.44;76.83
20930;BME280;21895;47.072;15.132;2023-05-23T02:28:57;96409.00;;;15.38;76.69
20930;BME280;21895;47.072;15.132;2023-05-23T02:31:24;96410.00;;;15.12;74.50
20930;BME280;21895;47.072;15.132;2023-05-23T02:33:51;96411.00;;;14.82;75.08
20930;BME280;21895;47.072;15.132;2023-05-23T02:36:18;96407.00;;;14.69;76.22
20930;BME280;21895;47.072;15.132;2023-05-23T02:38:45;96405.00;;;14.66;77.00
20930;BME280;21895;47.072;15.132;2023-05-23T02:41:11;96406.00;;;14.68;77.89
20930;BME280;21895;47.072;15.132;2023-05-23T02:43:38;96410.00;;;14.69;77.01
20930;BME280;21895;47.072;15.132;2023-05-23T02:46:04;96399.00;;;14.57;77.24
20930;BME280;21895;47.072;15.132;2023-05-23T02:48:31;96406.00;;;14.53;76.41
20930;BME280;21895;47.072;15.132;2023-05-23T02:50:58;96399.00;;;14.55;77.23
20930;BME280;21895;47.072;15.132;2023-05-23T02:53:24;96397.00;;;14.66;79.10
20930;BME280;21895;47.072;15.132;2023-05-23T02:55:51;96400.00;;;14.70;79.37
20930;BME280;21895;47.072;15.132;2023-05-23T02:58:17;96398.00;;;14.92;78.87
20930;BME280;21895;47.072;15.132;2023-05-23T03:00:45;96393.00;;;15.01;78.79
20930;BME280;21895;47.072;15.132;2023-05-23T03:03:12;96392.00;;;14.93;78.76
20930;BME280;21895;47.072;15.132;2023-05-23T03:05:38;96390.00;;;14.90;78.08
20930;BME280;21895;47.072;15.132;2023-05-23T03:08:05;96387.00;;;14.89;78.15
20930;BME280;21895;47.072;15.132;2023-05-23T03:10:32;96384.00;;;14.88;78.12
20930;BME280;21895;47.072;15.132;2023-05-23T03:12:58;96385.00;;;14.94;78.36
20930;BME280;21895;47.072;15.132;2023-05-23T03:15:25;96382.00;;;15.03;77.76
20930;BME280;21895;47.072;15.132;2023-05-23T03:17:51;96391.00;;;15.08;77.84
20930;BME280;21895;47.072;15.132;2023-05-23T03:20:18;96390.00;;;14.97;78.39
20930;BME280;21895;47.072;15.132;2023-05-23T03:22:45;96383.00;;;14.97;78.13
20930;BME280;21895;47.072;15.132;2023-05-23T03:25:14;96380.00;;;14.88;78.60
20930;BME280;21895;47.072;15.132;2023-05-23T03:27:41;96383.00;;;14.86;79.02
20930;BME280;21895;47.072;15.132;2023-05-23T03:30:09;96388.00;;;14.86;75.51
20930;BME280;21895;47.072;15.132;2023-05-23T03:32:35;96392.00;;;14.75;74.05
20930;BME280;21895;47.072;15.132;2023-05-23T03:35:02;96380.00;;;14.54;75.29
20930;BME280;21895;47.072;15.132;2023-05-23T03:37:29;96383.00;;;14.49;77.10
20930;BME280;21895;47.072;15.132;2023-05-23T03:39:55;96385.00;;;14.55;78.48
20930;BME280;21895;47.072;15.132;2023-05-23T03:42:22;96387.00;;;14.65;79.30
20930;BME280;21895;47.072;15.132;2023-05-23T03:44:48;96388.00;;;14.91;78.81
20930;BME280;21895;47.072;15.132;2023-05-23T03:47:15;96385.00;;;15.03;78.22
20930;BME280;21895;47.072;15.132;2023-05-23T03:49:41;96385.00;;;15.18;77.75
20930;BME280;21895;47.072;15.132;2023-05-23T03:52:10;96382.00;;;15.16;77.81
20930;BME280;21895;47.072;15.132;2023-05-23T03:54:36;96390.00;;;15.21;77.63
20930;BME280;21895;47.072;15.132;2023-05-23T03:57:03;96386.00;;;15.42;76.74
20930;BME280;21895;47.072;15.132;2023-05-23T03:59:30;96391.00;;;15.45;76.17
20930;BME280;21895;47.072;15.132;2023-05-23T04:01:56;96392.00;;;15.55;72.34
20930;BME280;21895;47.072;15.132;2023-05-23T04:04:24;96388.00;;;15.39;72.16
20930;BME280;21895;47.072;15.132;2023-05-23T04:06:51;96390.00;;;15.21;74.68
20930;BME280;21895;47.072;15.132;2023-05-23T04:09:17;96393.00;;;15.33;76.45
20930;BME280;21895;47.072;15.132;2023-05-23T04:11:44;96397.00;;;15.29;74.94
20930;BME280;21895;47.072;15.132;2023-05-23T04:14:12;96391.00;;;15.22;73.74
20930;BME280;21895;47.072;15.132;2023-05-23T04:16:39;96389.00;;;15.05;74.70
20930;BME280;21895;47.072;15.132;2023-05-23T04:19:07;96393.00;;;15.13;74.20
20930;BME280;21895;47.072;15.132;2023-05-23T04:21:33;96396.00;;;15.18;75.33
20930;BME280;21895;47.072;15.132;2023-05-23T04:24:00;96402.00;;;15.18;75.06
20930;BME280;21895;47.072;15.132;2023-05-23T04:26:28;96390.00;;;15.21;75.75
20930;BME280;21895;47.072;15.132;2023-05-23T04:28:54;96394.00;;;15.58;76.00
20930;BME280;21895;47.072;15.132;2023-05-23T04:31:21;96393.00;;;15.81;74.97
20930;BME280;21895;47.072;15.132;2023-05-23T04:33:48;96390.00;;;16.01;74.53
20930;BME280;21895;47.072;15.132;2023-05-23T04:36:15;96386.00;;;15.95;74.65
20930;BME280;21895;47.072;15.132;2023-05-23T04:38:41;96388.00;;;16.15;74.20
20930;BME280;21895;47.072;15.132;2023-05-23T04:41:08;96387.00;;;16.52;73.13
20930;BME280;21895;47.072;15.132;2023-05-23T04:43:38;96388.00;;;16.63;72.32
20930;BME280;21895;47.072;15.132;2023-05-23T04:46:10;96388.00;;;16.93;71.48
20930;BME280;21895;47.072;15.132;2023-05-23T04:48:39;96389.00;;;17.10;70.42
20930;BME280;21895;47.072;15.132;2023-05-23T04:51:05;96390.00;;;17.19;70.34
20930;BME280;21895;47.072;15.132;2023-05-23T04:53:34;96381.00;;;17.32;70.21
20930;BME280;21895;47.072;15.132;2023-05-23T04:56:02;96387.00;;;17.65;69.55
20930;BME280;21895;47.072;15.132;2023-05-23T04:58:28;96383.00;;;17.66;69.87
20930;BME280;21895;47.072;15.132;2023-05-23T05:00:56;96382.00;;;17.95;69.07
20930;BME280;21895;47.072;15.132;2023-05-23T05:03:23;96380.00;;;18.41;67.80
20930;BME280;21895;47.072;15.132;2023-05-23T05:05:51;96379.00;;;18.45;67.17
20930;BME280;21895;47.072;15.132;2023-05-23T05:08:18;96378.00;;;18.91;66.12
20930;BME280;21895;47.072;15.132;2023-05-23T05:10:45;96382.00;;;19.29;65.09
20930;BME280;21895;47.072;15.132;2023-05-23T05:13:12;96379.00;;;19.65;64.71
20930;BME280;21895;47.072;15.132;2023-05-23T05:15:38;96367.00;;;20.21;62.84
20930;BME280;21895;47.072;15.132;2023-05-23T05:18:05;96365.00;;;20.32;63.01
20930;BME280;21895;47.072;15.132;2023-05-23T05:20:31;96365.00;;;20.53;62.50
20930;BME280;21895;47.072;15.132;2023-05-23T05:22:58;96367.00;;;20.97;62.72
20930;BME280;21895;47.072;15.132;2023-05-23T05:25:24;96368.00;;;21.03;62.04
20930;BME280;21895;47.072;15.132;2023-05-23T05:27:52;96358.00;;;21.34;61.46
20930;BME280;21895;47.072;15.132;2023-05-23T05:30:19;96363.00;;;21.80;59.01
20930;BME280;21895;47.072;15.132;2023-05-23T05:32:45;96362.00;;;22.20;56.01
20930;BME280;21895;47.072;15.132;2023-05-23T05:35:12;96358.00;;;22.58;55.88
20930;BME280;21895;47.072;15.132;2023-05-23T05:37:39;96351.00;;;22.65;56.13
20930;BME280;21895;47.072;15.132;2023-05-23T05:40:06;96343.00;;;22.96;56.10
20930;BME280;21895;47.072;15.132;2023-05-23T05:42:34;96345.00;;;22.97;56.46
20930;BME280;21895;47.072;15.132;2023-05-23T05:45:00;96346.00;;;22.85;56.48
20930;BME280;21895;47.072;15.132;2023-05-23T05:47:27;96343.00;;;22.99;57.93
20930;BME280;21895;47.072;15.132;2023-05-23T05:49:53;96344.00;;;23.24;56.33
20930;BME280;21895;47.072;15.132;2023-05-23T05:52:20;96343.00;;;23.25;56.30
20930;BME280;21895;47.072;15.132;2023-05-23T05:54:47;96344.00;;;23.26;55.83
20930;BME280;21895;47.072;15.132;2023-05-23T05:57:13;96347.00;;;23.21;56.43
20930;BME280;21895;47.072;15.132;2023-05-23T05:59:40;96345.00;;;23.44;55.27
20930;BME280;21895;47.072;15.132;2023-05-23T06:02:06;96340.00;;;23.60;55.61
20930;BME280;21895;47.072;15.132;2023-05-23T06:04:33;96336.00;;;23.68;54.89
20930;BME280;21895;47.072;15.132;2023-05-23T06:07:00;96341.00;;;23.60;54.84
20930;BME280;21895;47.072;15.132;2023-05-23T06:09:26;96333.00;;;23.54;55.25
20930;BME280;21895;47.072;15.132;2023-05-23T06:11:53;96342.00;;;23.87;54.52
20930;BME280;21895;47.072;15.132;2023-05-23T06:14:19;96342.00;;;24.12;53.71
20930;BME280;21895;47.072;15.132;2023-05-23T06:16:46;96335.00;;;24.26;53.26
20930;BME280;21895;47.072;15.132;2023-05-23T06:19:13;96339.00;;;24.51;51.97
20930;BME280;21895;47.072;15.132;2023-05-23T06:21:39;96332.00;;;24.78;51.27
20930;BME280;21895;47.072;15.132;2023-05-23T06:24:06;96338.00;;;25.15;50.27
20930;BME280;21895;47.072;15.132;2023-05-23T06:26:33;96332.00;;;25.34;48.98
20930;BME280;21895;47.072;15.132;2023-05-23T06:28:59;96334.00;;;25.56;49.17
20930;BME280;21895;47.072;15.132;2023-05-23T06:31:26;96340.00;;;25.90;48.71
20930;BME280;21895;47.072;15.132;2023-05-23T06:33:53;96335.00;;;26.26;46.89
20930;BME280;21895;47.072;15.132;2023-05-23T06:36:19;96334.00;;;26.38;47.34
20930;BME280;21895;47.072;15.132;2023-05-23T06:38:46;96334.00;;;26.72;46.41
20930;BME280;21895;47.072;15.132;2023-05-23T06:41:13;96328.00;;;26.53;46.21
20930;BME280;21895;47.072;15.132;2023-05-23T06:43:42;96326.00;;;26.40;45.36
20930;BME280;21895;47.072;15.132;2023-05-23T06:46:08;96327.00;;;26.23;46.63
20930;BME280;21895;47.072;15.132;2023-05-23T06:48:35;96336.00;;;26.11;48.80
20930;BME280;21895;47.072;15.132;2023-05-23T06:51:01;96333.00;;;26.06;47.88
20930;BME280;21895;47.072;15.132;2023-05-23T06:53:28;96332.00;;;26.21;47.88
20930;BME280;21895;47.072;15.132;2023-05-23T06:55:55;96330.00;;;26.27;48.11
20930;BME280;21895;47.072;15.132;2023-05-23T06:58:21;96324.00;;;26.28;47.79
20930;BME280;21895;47.072;15.132;2023-05-23T07:00:50;96329.00;;;26.60;47.82
20930;BME280;21895;47.072;15.132;2023-05-23T07:03:16;96322.00;;;26.55;47.93
20930;BME280;21895;47.072;15.132;2023-05-23T07:05:43;96331.00;;;26.38;47.87
20930;BME280;21895;47.072;15.132;2023-05-23T07:08:10;96330.00;;;26.36;46.48
20930;BME280;21895;47.072;15.132;2023-05-23T07:10:37;96327.00;;;26.34;47.09
20930;BME280;21895;47.072;15.132;2023-05-23T07:13:06;96322.00;;;26.37;47.16
20930;BME280;21895;47.072;15.132;2023-05-23T07:15:33;96320.00;;;26.91;45.95
20930;BME280;21895;47.072;15.132;2023-05-23T07:18:00;96312.00;;;27.15;43.44
20930;BME280;21895;47.072;15.132;2023-05-23T07:20:26;96318.00;;;27.21;42.49
20930;BME280;21895;47.072;15.132;2023-05-23T07:22:53;96316.00;;;27.23;42.42
20930;BME280;21895;47.072;15.132;2023-05-23T07:25:19;96314.00;;;27.25;42.45
20930;BME280;21895;47.072;15.132;2023-05-23T07:27:48;96310.00;;;27.23;42.79
20930;BME280;21895;47.072;15.132;2023-05-23T07:30:15;96306.00;;;27.38;44.17
20930;BME280;21895;47.072;15.132;2023-05-23T07:32:42;96298.00;;;27.43;41.91
20930;BME280;21895;47.072;15.132;2023-05-23T07:35:08;96301.00;;;27.43;44.71
20930;BME280;21895;47.072;15.132;2023-05-23T07:37:35;96301.00;;;27.29;45.06
20930;BME280;21895;47.072;15.132;2023-05-23T07:40:03;96297.00;;;27.32;45.09
20930;BME280;21895;47.072;15.132;2023-05-23T07:42:30;96293.00;;;27.05;43.96
20930;BME280;21895;47.072;15.132;2023-05-23T07:44:57;96294.00;;;27.35;45.49
20930;BME280;21895;47.072;15.132;2023-05-23T07:47:26;96291.00;;;27.65;44.01
20930;BME280;21895;47.072;15.132;2023-05-23T07:49:53;96285.00;;;27.98;43.00
20930;BME280;21895;47.072;15.132;2023-05-23T07:52:20;96284.00;;;28.15;42.68
20930;BME280;21895;47.072;15.132;2023-05-23T07:54:46;96288.00;;;28.51;42.77
20930;BME280;21895;47.072;15.132;2023-05-23T07:57:13;96281.00;;;28.83;39.05
20930;BME280;21895;47.072;15.132;2023-05-23T07:59:41;96282.00;;;29.05;39.10
20930;BME280;21895;47.072;15.132;2023-05-23T08:02:08;96271.00;;;29.30;39.36
20930;BME280;21895;47.072;15.132;2023-05-23T08:04:35;96279.00;;;29.26;36.33
20930;BME280;21895;47.072;15.132;2023-05-23T08:07:01;96273.00;;;29.21;39.45
20930;BME280;21895;47.072;15.132;2023-05-23T08:09:32;96275.00;;;29.25;38.27
20930;BME280;21895;47.072;15.132;2023-05-23T08:11:58;96270.00;;;29.11;39.63
20930;BME280;21895;47.072;15.132;2023-05-23T08:14:26;96277.00;;;29.02;36.62
20930;BME280;21895;47.072;15.132;2023-05-23T08:17:15;96267.00;;;29.33;38.27
20930;BME280;21895;47.072;15.132;2023-05-23T08:19:41;96268.00;;;29.23;36.33
20930;BME280;21895;47.072;15.132;2023-05-23T08:22:09;96262.00;;;29.03;36.18
20930;BME280;21895;47.072;15.132;2023-05-23T08:24:35;96266.00;;;29.26;36.40
20930;BME280;21895;47.072;15.132;2023-05-23T08:27:02;96261.00;;;29.09;37.49
20930;BME280;21895;47.072;15.132;2023-05-23T08:29:29;96263.00;;;29.35;35.76
20930;BME280;21895;47.072;15.132;2023-05-23T08:31:55;96257.00;;;29.56;35.46
20930;BME280;21895;47.072;15.132;2023-05-23T08:34:22;96255.00;;;29.53;36.31
20930;BME280;21895;47.072;15.132;2023-05-23T08:36:49;96254.00;;;29.68;37.73
20930;BME280;21895;47.072;15.132;2023-05-23T08:39:16;96255.00;;;29.79;38.07
20930;BME280;21895;47.072;15.132;2023-05-23T08:41:42;96260.00;;;29.93;36.60
20930;BME280;21895;47.072;15.132;2023-05-23T08:44:09;96251.00;;;29.66;35.94
20930;BME280;21895;47.072;15.132;2023-05-23T08:46:46;96254.00;;;30.00;34.87
20930;BME280;21895;47.072;15.132;2023-05-23T08:49:17;96260.00;;;30.41;35.20
20930;BME280;21895;47.072;15.132;2023-05-23T08:51:44;96253.00;;;30.66;35.73
20930;BME280;21895;47.072;15.132;2023-05-23T08:54:12;96257.00;;;30.81;34.85
20930;BME280;21895;47.072;15.132;2023-05-23T08:56:40;96254.00;;;30.74;33.81
20930;BME280;21895;47.072;15.132;2023-05-23T08:59:10;96257.00;;;30.81;34.20
20930;BME280;21895;47.072;15.132;2023-05-23T09:01:37;96245.00;;;31.12;33.57
20930;BME280;21895;47.072;15.132;2023-05-23T09:04:05;96242.00;;;31.41;32.24
20930;BME280;21895;47.072;15.132;2023-05-23T09:06:33;96243.00;;;31.70;32.47
20930;BME280;21895;47.072;15.132;2023-05-23T09:09:00;96241.00;;;31.72;33.13
20930;BME280;21895;47.072;15.132;2023-05-23T09:11:26;96233.00;;;31.99;34.85
20930;BME280;21895;47.072;15.132;2023-05-23T09:13:53;96230.00;;;31.86;36.38
20930;BME280;21895;47.072;15.132;2023-05-23T09:16:21;96234.00;;;31.99;36.43
20930;BME280;21895;47.072;15.132;2023-05-23T09:18:47;96223.00;;;31.95;36.15
20930;BME280;21895;47.072;15.132;2023-05-23T09:21:14;96230.00;;;31.61;35.02
20930;BME280;21895;47.072;15.132;2023-05-23T09:23:41;96223.00;;;31.43;34.79
20930;BME280;21895;47.072;15.132;2023-05-23T09:26:10;96225.00;;;31.32;35.33
20930;BME280;21895;47.072;15.132;2023-05-23T09:28:41;96221.00;;;31.08;35.00
20930;BME280;21895;47.072;15.132;2023-05-23T09:31:08;96222.00;;;30.61;36.64
20930;BME280;21895;47.072;15.132;2023-05-23T09:33:47;96219.00;;;30.53;35.74
20930;BME280;21895;47.072;15.132;2023-05-23T09:36:14;96219.00;;;30.71;35.82
20930;BME280;21895;47.072;15.132;2023-05-23T09:38:44;96204.00;;;30.95;35.98
20930;BME280;21895;47.072;15.132;2023-05-23T09:41:11;96212.00;;;31.25;36.35
20930;BME280;21895;47.072;15.132;2023-05-23T09:43:39;96209.00;;;31.53;35.64
20930;BME280;21895;47.072;15.132;2023-05-23T09:46:09;96214.00;;;31.57;35.58
20930;BME280;21895;47.072;15.132;2023-05-23T09:48:37;96207.00;;;31.72;35.29
20930;BME280;21895;47.072;15.132;2023-05-23T09:51:08;96209.00;;;32.14;33.53
20930;BME280;21895;47.072;15.132;2023-05-23T09:53:35;96207.00;;;32.30;33.52
20930;BME280;21895;47.072;15.132;2023-05-23T09:56:03;96205.00;;;31.95;33.01
20930;BME280;21895;47.072;15.132;2023-05-23T09:58:34;96201.00;;;31.41;34.62
20930;BME280;21895;47.072;15.132;2023-05-23T10:01:02;96211.00;;;30.82;36.34
20930;BME280;21895;47.072;15.132;2023-05-23T10:03:51;96214.00;;;30.36;36.66
20930;BME280;21895;47.072;15.132;2023-05-23T10:06:47;96212.00;;;29.82;37.95
20930;BME280;21895;47.072;15.132;2023-05-23T10:09:18;96226.00;;;29.82;37.91
20930;BME280;21895;47.072;15.132;2023-05-23T10:13:07;96226.00;;;29.82;38.18
20930;BME280;21895;47.072;15.132;2023-05-23T10:15:39;96232.00;;;29.19;44.56
20930;BME280;21895;47.072;15.132;2023-05-23T10:18:17;96234.00;;;28.64;43.97
20930;BME280;21895;47.072;15.132;2023-05-23T10:20:53;96227.00;;;28.07;44.00
20930;BME280;21895;47.072;15.132;2023-05-23T10:23:22;96228.00;;;27.84;44.11
20930;BME280;21895;47.072;15.132;2023-05-23T10:25:50;96214.00;;;27.73;40.77
20930;BME280;21895;47.072;15.132;2023-05-23T10:28:18;96218.00;;;27.90;42.08
20930;BME280;21895;47.072;15.132;2023-05-23T10:30:45;96214.00;;;27.96;48.06
20930;BME280;21895;47.072;15.132;2023-05-23T10:33:14;96216.00;;;27.61;49.42
20930;BME280;21895;47.072;15.132;2023-05-23T10:36:01;96221.00;;;27.31;49.37
20930;BME280;21895;47.072;15.132;2023-05-23T10:38:57;96213.00;;;27.38;49.22
20930;BME280;21895;47.072;15.132;2023-05-23T10:42:57;96210.00;;;27.22;51.28
20930;BME280;21895;47.072;15.132;2023-05-23T10:45:26;96207.00;;;27.18;52.82
20930;BME280;21895;47.072;15.132;2023-05-23T10:47:53;96199.00;;;27.38;51.79
20930;BME280;21895;47.072;15.132;2023-05-23T10:50:36;96197.00;;;27.41;46.77
20930;BME280;21895;47.072;15.132;2023-05-23T10:53:04;96196.00;;;27.66;44.29
20930;BME280;21895;47.072;15.132;2023-05-23T10:55:35;96188.00;;;27.62;44.54
20930;BME280;21895;47.072;15.132;2023-05-23T10:58:19;96179.00;;;27.72;45.00
20930;BME280;21895;47.072;15.132;2023-05-23T11:00:56;96173.00;;;27.82;47.57
20930;BME280;21895;47.072;15.132;2023-05-23T11:04:27;96160.00;;;27.88;47.39
20930;BME280;21895;47.072;15.132;2023-05-23T11:06:55;96162.00;;;28.23;47.25
20930;BME280;21895;47.072;15.132;2023-05-23T11:09:22;96163.00;;;28.43;45.89
20930;BME280;21895;47.072;15.132;2023-05-23T11:12:01;96157.00;;;28.81;42.38
20930;BME280;21895;47.072;15.132;2023-05-23T11:15:20;96160.00;;;29.04;40.43
20930;BME280;21895;47.072;15.132;2023-05-23T11:17:55;96159.00;;;29.74;39.14
20930;BME280;21895;47.072;15.132;2023-05-23T11:20:25;96162.00;;;30.36;37.79
20930;BME280;21895;47.072;15.132;2023-05-23T11:23:02;96157.00;;;30.90;37.58
20930;BME280;21895;47.072;15.132;2023-05-23T11:25:48;96158.00;;;30.96;34.57
20930;BME280;21895;47.072;15.132;2023-05-23T11:28:15;96170.00;;;30.52;34.32
20930;BME280;21895;47.072;15.132;2023-05-23T11:30:43;96161.00;;;30.23;33.50
20930;BME280;21895;47.072;15.132;2023-05-23T11:33:14;96159.00;;;30.13;33.44
20930;BME280;21895;47.072;15.132;2023-05-23T11:35:46;96154.00;;;29.94;33.81
20930;BME280;21895;47.072;15.132;2023-05-23T11:38:15;96168.00;;;29.77;32.94
20930;BME280;21895;47.072;15.132;2023-05-23T11:40:47;96184.00;;;29.07;34.25
20930;BME280;21895;47.072;15.132;2023-05-23T11:43:16;96196.00;;;28.37;36.35
20930;BME280;21895;47.072;15.132;2023-05-23T11:45:43;96190.00;;;27.08;37.27
20930;BME280;21895;47.072;15.132;2023-05-23T11:48:14;96215.00;;;25.97;37.66
20930;BME280;21895;47.072;15.132;2023-05-23T11:50:50;96249.00;;;24.73;43.58
20930;BME280;21895;47.072;15.132;2023-05-23T11:53:19;96293.00;;;23.49;48.97
20930;BME280;21895;47.072;15.132;2023-05-23T11:55:57;96304.00;;;22.97;52.90
20930;BME280;21895;47.072;15.132;2023-05-23T11:58:38;96324.00;;;22.85;52.50
20930;BME280;21895;47.072;15.132;2023-05-23T12:01:10;96335.00;;;22.79;56.58
20930;BME280;21895;47.072;15.132;2023-05-23T12:03:50;96348.00;;;22.49;58.27
20930;BME280;21895;47.072;15.132;2023-05-23T12:06:21;96362.00;;;22.28;58.72
20930;BME280;21895;47.072;15.132;2023-05-23T12:08:51;96359.00;;;22.31;58.67
20930;BME280;21895;47.072;15.132;2023-05-23T12:11:18;96364.00;;;22.21;56.74
20930;BME280;21895;47.072;15.132;2023-05-23T12:13:45;96376.00;;;22.43;55.26
20930;BME280;21895;47.072;15.132;2023-05-23T12:16:13;96384.00;;;22.54;54.42
20930;BME280;21895;47.072;15.132;2023-05-23T12:18:42;96394.00;;;22.47;53.73
20930;BME280;21895;47.072;15.132;2023-05-23T12:21:10;96397.00;;;22.22;55.06
20930;BME280;21895;47.072;15.132;2023-05-23T12:23:38;96403.00;;;22.39;55.96
20930;BME280;21895;47.072;15.132;2023-05-23T12:26:06;96409.00;;;22.41;57.24
20930;BME280;21895;47.072;15.132;2023-05-23T12:28:42;96413.00;;;22.21;57.32
20930;BME280;21895;47.072;15.132;2023-05-23T12:31:19;96420.00;;;22.24;58.26
20930;BME280;21895;47.072;15.132;2023-05-23T12:33:47;96435.00;;;22.18;60.66
20930;BME280;21895;47.072;15.132;2023-05-23T12:36:23;96451.00;;;21.90;59.72
20930;BME280;21895;47.072;15.132;2023-05-23T12:38:50;96455.00;;;21.60;59.78
20930;BME280;21895;47.072;15.132;2023-05-23T12:41:18;96460.00;;;21.75;58.82
20930;BME280;21895;47.072;15.132;2023-05-23T12:43:52;96461.00;;;21.93;58.07
20930;BME280;21895;47.072;15.132;2023-05-23T12:46:24;96461.00;;;21.91;58.81
20930;BME280;21895;47.072;15.132;2023-05-23T12:48:52;96456.00;;;21.83;60.16
20930;BME280;21895;47.072;15.132;2023-05-23T12:51:19;96461.00;;;21.83;60.23
20930;BME280;21895;47.072;15.132;2023-05-23T12:53:46;96446.00;;;21.71;62.33
20930;BME280;21895;47.072;15.132;2023-05-23T12:56:13;96443.00;;;21.88;63.22
20930;BME280;21895;47.072;15.132;2023-05-23T12:58:39;96431.00;;;21.83;64.14
20930;BME280;21895;47.072;15.132;2023-05-23T13:01:06;96437.00;;;21.90;65.75
20930;BME280;21895;47.072;15.132;2023-05-23T13:03:33;96430.00;;;22.08;63.99
20930;BME280;21895;47.072;15.132;2023-05-23T13:06:00;96438.00;;;22.04;65.00
20930;BME280;21895;47.072;15.132;2023-05-23T13:08:27;96435.00;;;22.21;63.93